createdAt,value
2023-04-24T00:00:07.936Z,1.70
2023-04-24T00:02:35.090Z,1.40
2023-04-24T00:05:04.023Z,1.30
2023-04-24T00:07:31.135Z,1.50
2023-04-24T00:09:58.256Z,1.40
2023-04-24T00:12:25.458Z,2.00
2023-04-24T00:14:52.566Z,1.60
2023-04-24T00:17:19.713Z,1.73
2023-04-24T00:19:46.830Z,1.80
2023-04-24T00:22:15.322Z,1.63
2023-04-24T00:24:42.478Z,2.00
2023-04-24T00:27:09.500Z,1.70
2023-04-24T00:29:36.623Z,2.00
2023-04-24T00:32:03.786Z,2.17
2023-04-24T00:34:30.860Z,1.80
2023-04-24T00:36:57.993Z,1.77
2023-04-24T00:39:26.388Z,1.57
2023-04-24T00:41:53.901Z,1.50
2023-04-24T00:44:21.048Z,1.53
2023-04-24T00:46:48.171Z,1.47
2023-04-24T00:49:15.408Z,1.73
2023-04-24T00:51:42.542Z,1.50
2023-04-24T00:54:09.617Z,1.90
2023-04-24T00:56:38.075Z,1.77
2023-04-24T00:59:05.292Z,1.87
2023-04-24T01:01:32.756Z,1.47
2023-04-24T01:04:00.698Z,1.50
2023-04-24T01:06:28.966Z,1.87
2023-04-24T01:08:56.191Z,2.07
2023-04-24T01:11:23.333Z,1.83
2023-04-24T01:13:51.740Z,2.30
2023-04-24T01:16:18.812Z,2.20
2023-04-24T01:18:45.919Z,2.00
2023-04-24T01:21:14.709Z,2.63
2023-04-24T01:23:43.117Z,3.03
2023-04-24T01:26:11.085Z,3.60
2023-04-24T01:28:38.427Z,3.30
2023-04-24T01:31:06.669Z,3.30
2023-04-24T01:33:34.474Z,3.70
2023-04-24T01:36:01.500Z,4.33
2023-04-24T01:38:28.551Z,4.17
2023-04-24T01:40:56.908Z,4.00
2023-04-24T01:43:25.757Z,5.40
2023-04-24T01:45:52.833Z,4.80
2023-04-24T01:48:19.923Z,4.60
2023-04-24T01:50:47.116Z,5.07
2023-04-24T01:53:14.215Z,4.77
2023-04-24T01:55:41.909Z,4.50
2023-04-24T01:58:10.454Z,4.90
2023-04-24T02:00:37.572Z,4.90
2023-04-24T02:03:04.983Z,4.80
2023-04-24T02:05:32.154Z,5.07
2023-04-24T02:07:59.183Z,5.03
2023-04-24T02:10:26.315Z,5.70
2023-04-24T02:12:53.332Z,5.50
2023-04-24T02:15:25.151Z,5.47
2023-04-24T02:17:52.224Z,5.13
2023-04-24T02:20:19.293Z,5.77
2023-04-24T02:22:46.361Z,6.40
2023-04-24T02:25:13.457Z,6.03
2023-04-24T02:27:40.554Z,7.20
2023-04-24T02:30:08.194Z,7.03
2023-04-24T02:32:36.631Z,6.70
2023-04-24T02:35:03.696Z,7.00
2023-04-24T02:37:31.133Z,6.57
2023-04-24T02:39:58.222Z,8.07
2023-04-24T02:42:25.294Z,6.77
2023-04-24T02:44:52.326Z,8.00
2023-04-24T02:47:19.473Z,7.63
2023-04-24T02:49:48.214Z,7.07
2023-04-24T02:52:15.361Z,7.40
2023-04-24T02:54:42.574Z,8.10
2023-04-24T02:57:09.656Z,7.50
2023-04-24T02:59:38.948Z,8.03
2023-04-24T03:02:06.069Z,7.97
2023-04-24T03:04:33.384Z,7.70
2023-04-24T03:07:01.957Z,7.93
2023-04-24T03:09:29.048Z,8.30
2023-04-24T03:11:56.144Z,8.10
2023-04-24T03:14:23.166Z,8.97
2023-04-24T03:16:50.212Z,8.23
2023-04-24T03:19:17.361Z,8.13
2023-04-24T03:21:55.862Z,8.70
2023-04-24T03:24:24.310Z,8.30
2023-04-24T03:26:51.566Z,7.20
2023-04-24T03:29:43.127Z,8.70
2023-04-24T03:32:11.164Z,8.20
2023-04-24T03:34:39.355Z,7.77
2023-04-24T03:37:07.583Z,7.90
2023-04-24T03:39:38.065Z,9.57
2023-04-24T03:42:05.684Z,8.10
2023-04-24T03:44:44.276Z,8.00
2023-04-24T03:47:11.496Z,7.37
2023-04-24T03:49:38.806Z,7.80
2023-04-24T03:52:06.012Z,7.40
2023-04-24T03:54:33.150Z,7.93
2023-04-24T03:57:02.147Z,8.07
2023-04-24T03:59:31.335Z,10.47
2023-04-24T04:02:09.194Z,10.00
2023-04-24T04:04:36.654Z,8.80
2023-04-24T04:07:03.868Z,7.50
2023-04-24T04:09:31.585Z,9.60
2023-04-24T04:11:58.667Z,8.50
2023-04-24T04:14:27.217Z,8.50
2023-04-24T04:16:54.963Z,6.80
2023-04-24T04:19:22.366Z,8.47
2023-04-24T04:21:49.859Z,7.50
2023-04-24T04:24:27.206Z,6.83
2023-04-24T04:26:54.333Z,8.60
2023-04-24T04:29:30.074Z,8.83
2023-04-24T04:31:57.251Z,7.77
2023-04-24T04:34:24.469Z,8.73
2023-04-24T04:36:52.396Z,7.67
2023-04-24T04:39:42.657Z,9.53
2023-04-24T04:42:18.446Z,9.33
2023-04-24T04:44:46.921Z,8.40
2023-04-24T04:47:18.804Z,9.00
2023-04-24T04:49:46.535Z,8.43
2023-04-24T04:52:19.436Z,8.83
2023-04-24T04:54:49.981Z,10.00
2023-04-24T04:57:17.337Z,8.50
2023-04-24T04:59:45.187Z,7.73
2023-04-24T05:02:21.370Z,8.70
2023-04-24T05:04:48.740Z,8.40
2023-04-24T05:07:16.193Z,8.17
2023-04-24T05:09:48.602Z,7.87
2023-04-24T05:12:15.666Z,7.07
2023-04-24T05:14:50.564Z,6.97
2023-04-24T05:17:18.785Z,6.43
2023-04-24T05:19:47.351Z,6.50
2023-04-24T05:22:15.311Z,6.63
2023-04-24T05:24:49.416Z,7.50
2023-04-24T05:27:35.359Z,6.50
2023-04-24T05:30:06.850Z,5.93
2023-04-24T05:32:34.998Z,6.63
2023-04-24T05:35:03.570Z,5.60
2023-04-24T05:37:30.589Z,6.47
2023-04-24T05:39:57.710Z,7.40
2023-04-24T05:42:24.816Z,7.27
2023-04-24T05:44:53.303Z,6.87
2023-04-24T05:47:21.135Z,6.57
2023-04-24T05:49:48.299Z,9.27
2023-04-24T05:52:16.796Z,9.33
2023-04-24T05:54:44.116Z,9.40
2023-04-24T05:57:13.716Z,8.67
2023-04-24T05:59:51.731Z,10.70
2023-04-24T06:02:20.939Z,9.10
2023-04-24T06:04:48.313Z,9.27
2023-04-24T06:07:16.844Z,8.47
2023-04-24T06:09:44.482Z,7.70
2023-04-24T06:12:12.200Z,7.20
2023-04-24T06:14:55.915Z,8.60
2023-04-24T06:17:34.327Z,6.93
2023-04-24T06:20:01.444Z,7.50
2023-04-24T06:22:30.022Z,6.63
2023-04-24T06:24:57.112Z,6.30
2023-04-24T06:27:25.466Z,7.40
2023-04-24T06:29:52.542Z,6.53
2023-04-24T06:32:19.730Z,6.70
2023-04-24T06:34:46.802Z,6.67
2023-04-24T06:37:13.876Z,5.50
2023-04-24T06:39:42.543Z,5.97
2023-04-24T06:42:09.955Z,5.77
2023-04-24T06:44:37.080Z,4.70
2023-04-24T06:47:04.597Z,6.40
2023-04-24T06:49:31.725Z,4.70
2023-04-24T06:51:58.822Z,6.40
2023-04-24T06:54:25.885Z,6.10
2023-04-24T06:56:54.352Z,5.30
2023-04-24T06:59:21.456Z,4.77
2023-04-24T07:01:48.550Z,6.00
2023-04-24T07:04:16.068Z,6.13
2023-04-24T07:06:43.322Z,5.37
2023-04-24T07:09:10.422Z,5.60
2023-04-24T07:11:37.570Z,5.37
2023-04-24T07:14:05.945Z,5.10
2023-04-24T07:16:33.078Z,5.23
2023-04-24T07:19:00.139Z,4.07
2023-04-24T07:21:27.191Z,5.27
2023-04-24T07:23:54.418Z,5.03
2023-04-24T07:26:21.799Z,5.17
2023-04-24T07:28:48.930Z,4.50
2023-04-24T07:31:17.348Z,3.97
2023-04-24T07:33:44.505Z,3.57
2023-04-24T07:36:11.625Z,3.27
2023-04-24T07:38:38.669Z,2.83
2023-04-24T07:41:05.793Z,1.90
2023-04-24T07:43:32.799Z,1.93
2023-04-24T07:45:59.899Z,1.97
2023-04-24T07:48:28.384Z,1.37
2023-04-24T07:50:55.541Z,1.33
2023-04-24T07:53:22.654Z,1.27
2023-04-24T07:55:49.696Z,1.23
2023-04-24T07:58:16.804Z,1.17
2023-04-24T08:00:43.910Z,1.10
2023-04-24T08:03:11.091Z,0.97
2023-04-24T08:05:41.002Z,1.20
2023-04-24T08:08:08.317Z,1.20
2023-04-24T08:10:35.519Z,1.10
2023-04-24T08:13:02.595Z,1.30
2023-04-24T08:15:29.696Z,0.93
2023-04-24T08:17:58.501Z,1.20
2023-04-24T08:20:26.191Z,1.63
2023-04-24T08:22:54.604Z,1.30
2023-04-24T08:25:21.680Z,1.20
2023-04-24T08:27:48.793Z,2.10
2023-04-24T08:30:16.250Z,2.97
2023-04-24T08:32:43.384Z,2.40
2023-04-24T08:35:10.645Z,4.33
2023-04-24T08:37:37.802Z,4.87
2023-04-24T08:40:08.102Z,5.40
2023-04-24T08:42:36.054Z,6.23
2023-04-24T08:45:03.095Z,4.57
2023-04-24T08:47:30.486Z,4.70
2023-04-24T08:49:58.762Z,5.43
2023-04-24T08:52:27.054Z,5.43
2023-04-24T08:54:55.310Z,5.70
2023-04-24T08:57:23.951Z,6.70
2023-04-24T08:59:51.142Z,5.10
2023-04-24T09:02:18.471Z,5.80
2023-04-24T09:04:46.126Z,4.00
2023-04-24T09:07:13.798Z,4.03
2023-04-24T09:09:42.250Z,3.00
2023-04-24T09:12:09.456Z,3.40
2023-04-24T09:14:38.073Z,3.10
2023-04-24T09:17:05.276Z,4.50
2023-04-24T09:19:32.468Z,3.43
2023-04-24T09:21:59.580Z,4.23
2023-04-24T09:24:26.660Z,4.63
2023-04-24T09:26:57.824Z,5.07
2023-04-24T09:29:24.943Z,4.80
2023-04-24T09:31:53.451Z,4.97
2023-04-24T09:34:23.034Z,4.70
2023-04-24T09:36:50.162Z,5.17
2023-04-24T09:39:17.839Z,4.77
2023-04-24T09:41:45.873Z,4.27
2023-04-24T09:44:13.835Z,4.60
2023-04-24T09:46:41.017Z,5.20
2023-04-24T09:49:16.116Z,5.20
2023-04-24T09:51:43.364Z,5.10
2023-04-24T09:54:15.503Z,5.30
2023-04-24T09:56:43.862Z,5.90
2023-04-24T09:59:11.058Z,6.20
2023-04-24T10:01:38.201Z,6.90
2023-04-24T10:04:05.605Z,7.03
2023-04-24T10:06:37.355Z,8.50
2023-04-24T10:09:04.498Z,9.57
2023-04-24T10:11:32.025Z,8.70
2023-04-24T10:13:59.253Z,7.33
2023-04-24T10:16:26.767Z,9.03
2023-04-24T10:18:54.153Z,8.40
2023-04-24T10:21:21.276Z,9.20
2023-04-24T10:23:50.405Z,8.50
2023-04-24T10:26:18.563Z,7.67
2023-04-24T10:28:46.497Z,9.00
2023-04-24T10:31:14.101Z,9.80
2023-04-24T10:33:41.635Z,9.40
2023-04-24T10:36:09.595Z,8.70
2023-04-24T10:38:36.994Z,9.80
2023-04-24T10:41:15.064Z,7.33
2023-04-24T10:43:42.124Z,9.07
2023-04-24T10:46:09.908Z,8.47
2023-04-24T10:48:37.405Z,8.37
2023-04-24T10:51:04.555Z,6.80
2023-04-24T10:53:32.031Z,6.93
2023-04-24T10:55:59.878Z,5.47
2023-04-24T10:58:37.652Z,6.37
2023-04-24T11:01:04.850Z,6.07
2023-04-24T11:03:32.807Z,6.57
2023-04-24T11:06:01.358Z,5.80
2023-04-24T11:08:29.693Z,5.40
2023-04-24T11:10:58.261Z,5.90
2023-04-24T11:13:26.509Z,7.23
2023-04-24T11:16:12.219Z,6.07
2023-04-24T11:18:40.715Z,8.53
2023-04-24T11:21:11.795Z,8.60
2023-04-24T11:23:38.865Z,7.30
2023-04-24T11:26:12.047Z,5.33
2023-04-24T11:28:41.460Z,5.40
2023-04-24T11:31:24.388Z,5.87
2023-04-24T11:33:52.855Z,5.77
2023-04-24T11:36:20.871Z,7.00
2023-04-24T11:38:48.381Z,6.43
2023-04-24T11:41:15.555Z,5.50
2023-04-24T11:43:43.089Z,4.77
2023-04-24T11:46:10.681Z,4.80
2023-04-24T11:48:37.758Z,4.73
2023-04-24T11:51:06.309Z,5.10
2023-04-24T11:53:33.522Z,5.00
2023-04-24T11:56:03.957Z,6.10
2023-04-24T11:58:36.116Z,4.83
2023-04-24T12:01:03.423Z,6.20
2023-04-24T12:03:30.878Z,5.00
2023-04-24T12:06:07.851Z,4.70
2023-04-24T12:08:37.188Z,5.30
2023-04-24T12:11:06.246Z,4.70
2023-04-24T12:13:33.331Z,3.80
2023-04-24T12:16:00.578Z,4.50
2023-04-24T12:18:27.742Z,3.50
2023-04-24T12:23:39.223Z,3.53
2023-04-24T12:26:06.552Z,4.33
2023-04-24T12:28:36.896Z,4.90
2023-04-24T12:31:04.142Z,3.23
2023-04-24T12:33:34.746Z,3.30
2023-04-24T12:36:01.843Z,3.57
2023-04-24T12:38:29.661Z,3.27
2023-04-24T12:41:04.580Z,3.20
2023-04-24T12:43:31.637Z,3.20
2023-04-24T12:45:58.844Z,2.23
2023-04-24T12:48:26.225Z,2.47
2023-04-24T12:50:53.363Z,2.80
2023-04-24T12:53:20.589Z,2.80
2023-04-24T12:55:47.708Z,3.30
2023-04-24T12:58:16.164Z,2.30
2023-04-24T13:00:43.358Z,2.20
2023-04-24T13:03:10.895Z,2.60
2023-04-24T13:05:38.002Z,1.93
2023-04-24T13:08:05.116Z,1.67
2023-04-24T13:10:32.184Z,2.33
2023-04-24T13:12:59.370Z,1.70
2023-04-24T13:15:27.759Z,1.80
2023-04-24T13:17:54.895Z,1.97
2023-04-24T13:20:22.108Z,2.73
2023-04-24T13:22:49.171Z,3.20
2023-04-24T13:25:16.228Z,2.10
2023-04-24T13:27:43.296Z,1.93
2023-04-24T13:30:10.910Z,1.80
2023-04-24T13:32:39.445Z,1.63
2023-04-24T13:35:06.875Z,2.50
2023-04-24T13:37:33.922Z,2.50
2023-04-24T13:40:00.974Z,1.70
2023-04-24T13:42:27.975Z,2.23
2023-04-24T13:44:55.107Z,2.43
2023-04-24T13:47:22.264Z,2.60
2023-04-24T13:49:50.673Z,2.17
2023-04-24T13:52:17.784Z,2.00
2023-04-24T13:54:44.889Z,2.60
2023-04-24T13:57:12.210Z,2.53
2023-04-24T13:59:39.660Z,2.20
2023-04-24T14:02:06.818Z,1.80
2023-04-24T14:04:34.189Z,2.20
2023-04-24T14:07:02.718Z,2.17
2023-04-24T14:09:29.769Z,3.40
2023-04-24T14:11:56.869Z,1.73
2023-04-24T14:14:24.399Z,1.77
2023-04-24T14:16:51.540Z,1.97
2023-04-24T14:19:18.637Z,2.23
2023-04-24T14:21:45.724Z,1.93
2023-04-24T14:24:14.110Z,2.40
2023-04-24T14:26:41.181Z,2.63
2023-04-24T14:29:14.865Z,2.23
2023-04-24T14:31:42.488Z,2.20
2023-04-24T14:34:11.176Z,1.97
2023-04-24T14:36:38.428Z,1.83
2023-04-24T14:39:05.462Z,2.27
2023-04-24T14:41:33.887Z,1.50
2023-04-24T14:44:01.412Z,2.20
2023-04-24T14:46:28.789Z,1.90
2023-04-24T14:48:56.261Z,1.83
2023-04-24T14:51:23.316Z,2.37
2023-04-24T14:53:50.367Z,1.40
2023-04-24T14:56:17.438Z,2.13
2023-04-24T14:58:45.908Z,1.60
2023-04-24T15:01:13.056Z,1.93
2023-04-24T15:03:40.322Z,2.23
2023-04-24T15:06:07.666Z,2.20
2023-04-24T15:08:34.758Z,1.93
2023-04-24T15:11:01.881Z,1.83
2023-04-24T15:13:28.921Z,1.90
2023-04-24T15:15:57.333Z,1.60
2023-04-24T15:18:24.424Z,1.70
2023-04-24T15:20:51.461Z,1.40
2023-04-24T15:23:18.505Z,1.60
2023-04-24T15:25:45.594Z,1.87
2023-04-24T15:28:13.327Z,1.83
2023-04-24T15:30:40.510Z,1.80
2023-04-24T15:33:08.993Z,1.57
2023-04-24T15:35:36.134Z,1.67
2023-04-24T15:38:03.401Z,2.37
2023-04-24T15:40:30.446Z,1.70
2023-04-24T15:42:57.581Z,2.37
2023-04-24T15:45:24.821Z,2.00
2023-04-24T15:47:52.264Z,2.10
2023-04-24T15:50:20.809Z,2.37
2023-04-24T15:52:47.884Z,2.00
2023-04-24T15:55:14.931Z,2.30
2023-04-24T15:57:42.020Z,2.00
2023-04-24T16:00:09.615Z,1.90
2023-04-24T16:02:39.621Z,2.17
2023-04-24T16:05:07.033Z,1.90
2023-04-24T16:07:35.937Z,2.13
2023-04-24T16:10:02.995Z,1.70
2023-04-24T16:12:30.177Z,2.10
2023-04-24T16:14:57.228Z,1.80
2023-04-24T16:17:24.326Z,1.60
2023-04-24T16:19:51.358Z,2.97
2023-04-24T16:22:18.476Z,2.13
2023-04-24T16:24:47.049Z,2.43
2023-04-24T16:27:14.650Z,1.87
2023-04-24T16:29:41.806Z,1.70
2023-04-24T16:32:09.664Z,1.90
2023-04-24T16:34:36.759Z,1.60
2023-04-24T16:37:03.868Z,2.10
2023-04-24T16:39:31.019Z,1.70
2023-04-24T16:42:00.405Z,1.90
2023-04-24T16:44:28.198Z,1.90
2023-04-24T16:46:55.300Z,1.87
2023-04-24T16:49:22.847Z,2.03
2023-04-24T16:51:50.044Z,2.10
2023-04-24T16:54:17.406Z,1.93
2023-04-24T16:56:44.458Z,1.70
2023-04-24T16:59:12.869Z,1.83
2023-04-24T17:01:40.007Z,1.88
2023-04-24T17:04:07.250Z,2.17
2023-04-24T17:06:34.464Z,2.47
2023-04-24T17:09:01.575Z,1.83
2023-04-24T17:11:30.965Z,2.00
2023-04-24T17:13:58.371Z,2.40
2023-04-24T17:16:26.968Z,2.20
2023-04-24T17:18:54.094Z,2.00
2023-04-24T17:21:21.160Z,2.27
2023-04-24T17:23:48.244Z,2.53
2023-04-24T17:26:15.443Z,2.60
2023-04-24T17:28:42.627Z,2.00
2023-04-24T17:31:09.707Z,2.30
2023-04-24T17:33:38.124Z,2.67
2023-04-24T17:36:05.428Z,2.10
2023-04-24T17:38:32.740Z,2.00
2023-04-24T17:40:59.800Z,2.60
2023-04-24T17:43:26.919Z,1.57
2023-04-24T17:45:54.752Z,1.93
2023-04-24T17:48:22.094Z,1.60
2023-04-24T17:50:50.508Z,2.00
2023-04-24T17:53:17.602Z,2.57
2023-04-24T17:55:44.661Z,1.83
2023-04-24T17:58:11.807Z,2.03
2023-04-24T18:00:38.915Z,1.83
2023-04-24T18:03:07.118Z,1.87
2023-04-24T18:05:35.134Z,1.90
2023-04-24T18:08:03.780Z,1.70
2023-04-24T18:10:31.953Z,1.60
2023-04-24T18:12:59.115Z,1.93
2023-04-24T18:15:26.230Z,2.60
2023-04-24T18:17:53.309Z,2.13
2023-04-24T18:20:20.516Z,2.10
2023-04-24T18:22:47.920Z,2.30
2023-04-24T18:25:16.433Z,2.63
2023-04-24T18:27:43.573Z,2.20
2023-04-24T18:30:13.744Z,3.20
2023-04-24T18:32:41.796Z,2.73
2023-04-24T18:35:09.286Z,2.53
2023-04-24T18:37:36.415Z,2.70
2023-04-24T18:40:03.718Z,2.40
2023-04-24T18:42:32.227Z,3.00
2023-04-24T18:44:59.234Z,2.87
2023-04-24T18:47:26.357Z,2.30
2023-04-24T18:49:53.478Z,2.23
2023-04-24T18:52:20.522Z,2.27
2023-04-24T18:54:48.035Z,3.07
2023-04-24T18:57:15.126Z,2.40
2023-04-24T18:59:43.533Z,3.33
2023-04-24T19:02:10.680Z,2.37
2023-04-24T19:04:37.833Z,3.00
2023-04-24T19:07:04.886Z,3.17
2023-04-24T19:09:31.925Z,2.43
2023-04-24T19:11:59.424Z,3.10
2023-04-24T19:14:26.486Z,3.40
2023-04-24T19:16:55.092Z,2.67
2023-04-24T19:19:22.354Z,2.60
2023-04-24T19:21:49.456Z,3.00
2023-04-24T19:24:16.519Z,3.33
2023-04-24T19:26:43.610Z,3.57
2023-04-24T19:29:10.628Z,3.83
2023-04-24T19:31:37.678Z,3.10
2023-04-24T19:34:06.088Z,2.73
2023-04-24T19:36:33.359Z,2.90
2023-04-24T19:39:01.007Z,3.43
2023-04-24T19:41:28.164Z,3.60
2023-04-24T19:43:55.213Z,3.30
2023-04-24T19:46:22.355Z,2.90
2023-04-24T19:48:49.738Z,3.40
2023-04-24T19:51:18.508Z,4.13
2023-04-24T19:53:45.554Z,3.53
2023-04-24T19:56:12.615Z,3.80
2023-04-24T19:58:39.711Z,3.07
2023-04-24T20:01:06.822Z,3.77
2023-04-24T20:03:35.043Z,3.53
2023-04-24T20:06:02.321Z,3.50
2023-04-24T20:08:30.696Z,4.20
2023-04-24T20:10:58.238Z,3.63
2023-04-24T20:13:25.867Z,3.43
2023-04-24T20:15:52.980Z,3.80
2023-04-24T20:18:20.035Z,3.40
2023-04-24T20:20:47.114Z,3.47
2023-04-24T20:23:14.796Z,5.30
2023-04-24T20:25:43.306Z,4.00
2023-04-24T20:28:10.348Z,4.00
2023-04-24T20:30:37.780Z,3.83
2023-04-24T20:33:05.011Z,4.30
2023-04-24T20:35:32.202Z,3.70
2023-04-24T20:37:59.220Z,4.10
2023-04-24T20:40:26.298Z,3.53
2023-04-24T20:42:54.662Z,4.37
2023-04-24T20:45:21.703Z,3.30
2023-04-24T20:47:50.607Z,3.33
2023-04-24T20:50:18.010Z,3.30
2023-04-24T20:52:45.052Z,4.40
2023-04-24T20:55:12.174Z,3.30
2023-04-24T20:57:39.334Z,3.83
2023-04-24T21:00:08.499Z,3.70
2023-04-24T21:02:35.665Z,3.27
2023-04-24T21:05:03.022Z,3.70
2023-04-24T21:07:30.180Z,4.03
2023-04-24T21:09:57.288Z,3.63
2023-04-24T21:12:24.392Z,3.80
2023-04-24T21:14:51.738Z,4.40
2023-04-24T21:17:20.297Z,3.63
2023-04-24T21:19:47.540Z,5.03
2023-04-24T21:22:14.686Z,4.30
2023-04-24T21:24:41.810Z,4.47
2023-04-24T21:27:08.976Z,4.23
2023-04-24T21:29:36.077Z,3.80
2023-04-24T21:32:03.561Z,3.70
2023-04-24T21:34:32.138Z,4.47
2023-04-24T21:36:59.151Z,4.23
2023-04-24T21:39:26.330Z,3.90
2023-04-24T21:41:53.527Z,3.30
2023-04-24T21:44:20.630Z,4.00
2023-04-24T21:46:47.756Z,4.73
2023-04-24T21:49:14.902Z,4.50
2023-04-24T21:51:43.336Z,4.93
2023-04-24T21:54:10.426Z,4.00
2023-04-24T21:56:37.525Z,4.30
2023-04-24T21:59:04.591Z,3.80
2023-04-24T22:01:31.669Z,3.93
2023-04-24T22:03:58.901Z,4.77
2023-04-24T22:06:26.059Z,4.77
2023-04-24T22:08:54.506Z,4.30
2023-04-24T22:11:26.785Z,4.47
2023-04-24T22:13:54.747Z,5.13
2023-04-24T22:16:22.872Z,5.00
2023-04-24T22:18:50.104Z,4.33
2023-04-24T22:21:17.229Z,5.20
2023-04-24T22:23:44.350Z,4.13
2023-04-24T22:26:12.772Z,4.50
2023-04-24T22:28:39.819Z,6.77
2023-04-24T22:31:07.073Z,4.57
2023-04-24T22:33:34.221Z,5.07
2023-04-24T22:36:01.400Z,5.20
2023-04-24T22:38:28.560Z,5.10
2023-04-24T22:40:55.689Z,5.80
2023-04-24T22:43:24.138Z,5.10
2023-04-24T22:45:51.273Z,5.33
2023-04-24T22:48:18.354Z,6.10
2023-04-24T22:50:45.461Z,5.27
2023-04-24T22:53:12.520Z,5.60
2023-04-24T22:55:39.595Z,5.50
2023-04-24T22:58:07.250Z,6.27
2023-04-24T23:00:35.752Z,6.17
2023-04-24T23:03:02.966Z,6.00
2023-04-24T23:05:30.264Z,6.57
2023-04-24T23:07:57.401Z,5.03
2023-04-24T23:10:24.474Z,6.27
2023-04-24T23:12:51.612Z,5.90
2023-04-24T23:15:18.810Z,5.23
2023-04-24T23:17:47.261Z,5.80
2023-04-24T23:20:14.501Z,5.77
2023-04-24T23:22:41.902Z,6.50
2023-04-24T23:25:09.424Z,5.73
2023-04-24T23:27:36.463Z,5.23
2023-04-24T23:30:03.559Z,5.57
2023-04-24T23:32:30.726Z,6.43
2023-04-24T23:34:59.221Z,5.17
2023-04-24T23:37:26.437Z,5.17
2023-04-24T23:39:53.582Z,5.23
2023-04-24T23:42:20.629Z,5.10
2023-04-24T23:44:47.680Z,5.37
2023-04-24T23:47:14.738Z,3.83
2023-04-24T23:49:41.835Z,4.60
2023-04-24T23:52:10.279Z,4.70
2023-04-24T23:54:37.375Z,5.60
2023-04-24T23:57:04.590Z,5.87
2023-04-24T23:59:31.708Z,4.93
